sensor_id;sensor_type;location;lat;lon;timestamp;P1;durP1;ratioP1;P2;durP2;ratioP2
44824;SDS011;30542;47.928;2.138;2022-11-02T00:01:12;2.72;;;0.80;;
44824;SDS011;30542;47.928;2.138;2022-11-02T00:06:27;1.80;;;0.43;;
44824;SDS011;30542;47.928;2.138;2022-11-02T00:11:27;3.00;;;0.60;;
44824;SDS011;30542;47.928;2.138;2022-11-02T00:16:28;1.70;;;0.80;;
44824;SDS011;30542;47.928;2.138;2022-11-02T00:21:28;2.13;;;0.60;;
44824;SDS011;30542;47.928;2.138;2022-11-02T00:26:29;2.72;;;0.60;;
44824;SDS011;30542;47.928;2.138;2022-11-02T00:31:32;2.13;;;0.45;;
44824;SDS011;30542;47.928;2.138;2022-11-02T00:36:32;2.23;;;0.77;;
44824;SDS011;30542;47.928;2.138;2022-11-02T00:41:33;2.42;;;0.40;;
44824;SDS011;30542;47.928;2.138;2022-11-02T00:46:33;1.60;;;0.50;;
44824;SDS011;30542;47.928;2.138;2022-11-02T00:51:34;2.97;;;0.50;;
44824;SDS011;30542;47.928;2.138;2022-11-02T00:56:34;1.80;;;0.60;;
44824;SDS011;30542;47.928;2.138;2022-11-02T01:01:34;2.23;;;0.53;;
44824;SDS011;30542;47.928;2.138;2022-11-02T01:06:35;2.50;;;0.50;;
44824;SDS011;30542;47.928;2.138;2022-11-02T01:11:36;1.77;;;0.45;;
44824;SDS011;30542;47.928;2.138;2022-11-02T01:16:37;1.20;;;0.40;;
44824;SDS011;30542;47.928;2.138;2022-11-02T01:21:40;2.17;;;0.40;;
44824;SDS011;30542;47.928;2.138;2022-11-02T01:26:40;2.20;;;0.67;;
44824;SDS011;30542;47.928;2.138;2022-11-02T01:31:40;1.23;;;0.50;;
44824;SDS011;30542;47.928;2.138;2022-11-02T01:36:42;3.13;;;0.50;;
44824;SDS011;30542;47.928;2.138;2022-11-02T01:41:43;1.27;;;0.30;;
44824;SDS011;30542;47.928;2.138;2022-11-02T01:46:44;2.47;;;0.40;;
44824;SDS011;30542;47.928;2.138;2022-11-02T01:51:55;2.05;;;0.47;;
44824;SDS011;30542;47.928;2.138;2022-11-02T01:57:00;1.27;;;0.30;;
44824;SDS011;30542;47.928;2.138;2022-11-02T02:02:04;1.95;;;0.50;;
44824;SDS011;30542;47.928;2.138;2022-11-02T02:07:10;1.20;;;0.30;;
44824;SDS011;30542;47.928;2.138;2022-11-02T02:12:12;1.45;;;0.30;;
44824;SDS011;30542;47.928;2.138;2022-11-02T02:23:25;1.55;;;0.30;;
44824;SDS011;30542;47.928;2.138;2022-11-02T02:33:44;1.77;;;0.50;;
44824;SDS011;30542;47.928;2.138;2022-11-02T02:38:55;3.00;;;0.60;;
44824;SDS011;30542;47.928;2.138;2022-11-02T02:44:00;2.67;;;0.28;;
44824;SDS011;30542;47.928;2.138;2022-11-02T02:49:04;1.33;;;0.32;;
44824;SDS011;30542;47.928;2.138;2022-11-02T02:54:08;2.05;;;0.55;;
44824;SDS011;30542;47.928;2.138;2022-11-02T02:59:26;1.67;;;0.30;;
44824;SDS011;30542;47.928;2.138;2022-11-02T03:04:29;2.53;;;0.60;;
44824;SDS011;30542;47.928;2.138;2022-11-02T03:09:36;0.93;;;0.23;;
44824;SDS011;30542;47.928;2.138;2022-11-02T03:25:18;1.27;;;0.40;;
44824;SDS011;30542;47.928;2.138;2022-11-02T03:30:28;1.98;;;0.32;;
44824;SDS011;30542;47.928;2.138;2022-11-02T03:35:47;1.67;;;0.40;;
44824;SDS011;30542;47.928;2.138;2022-11-02T03:41:02;1.58;;;0.45;;
44824;SDS011;30542;47.928;2.138;2022-11-02T03:46:05;1.38;;;0.40;;
44824;SDS011;30542;47.928;2.138;2022-11-02T03:51:13;1.75;;;0.40;;
44824;SDS011;30542;47.928;2.138;2022-11-02T03:56:27;2.20;;;0.52;;
44824;SDS011;30542;47.928;2.138;2022-11-02T04:01:36;0.82;;;0.30;;
44824;SDS011;30542;47.928;2.138;2022-11-02T04:11:41;1.15;;;0.30;;
44824;SDS011;30542;47.928;2.138;2022-11-02T04:17:00;1.75;;;0.40;;
44824;SDS011;30542;47.928;2.138;2022-11-02T04:22:21;2.03;;;0.47;;
44824;SDS011;30542;47.928;2.138;2022-11-02T04:27:41;0.77;;;0.30;;
44824;SDS011;30542;47.928;2.138;2022-11-02T04:32:48;1.48;;;0.45;;
44824;SDS011;30542;47.928;2.138;2022-11-02T04:38:08;1.48;;;0.52;;
44824;SDS011;30542;47.928;2.138;2022-11-02T04:43:27;2.72;;;0.40;;
44824;SDS011;30542;47.928;2.138;2022-11-02T04:48:27;2.00;;;0.33;;
44824;SDS011;30542;47.928;2.138;2022-11-02T04:53:27;1.97;;;0.40;;
44824;SDS011;30542;47.928;2.138;2022-11-02T04:58:28;1.07;;;0.30;;
44824;SDS011;30542;47.928;2.138;2022-11-02T05:03:28;1.97;;;0.50;;
44824;SDS011;30542;47.928;2.138;2022-11-02T05:08:29;1.97;;;0.40;;
44824;SDS011;30542;47.928;2.138;2022-11-02T05:13:29;1.48;;;0.30;;
44824;SDS011;30542;47.928;2.138;2022-11-02T05:18:30;2.70;;;0.40;;
44824;SDS011;30542;47.928;2.138;2022-11-02T05:23:31;1.85;;;0.60;;
44824;SDS011;30542;47.928;2.138;2022-11-02T05:28:32;1.38;;;0.30;;
44824;SDS011;30542;47.928;2.138;2022-11-02T05:33:33;2.08;;;0.47;;
44824;SDS011;30542;47.928;2.138;2022-11-02T05:38:34;0.95;;;0.28;;
44824;SDS011;30542;47.928;2.138;2022-11-02T05:43:34;1.93;;;0.30;;
44824;SDS011;30542;47.928;2.138;2022-11-02T05:48:34;2.40;;;0.60;;
44824;SDS011;30542;47.928;2.138;2022-11-02T05:53:35;2.70;;;0.50;;
44824;SDS011;30542;47.928;2.138;2022-11-02T05:58:37;1.63;;;0.50;;
44824;SDS011;30542;47.928;2.138;2022-11-02T06:03:37;1.70;;;0.60;;
44824;SDS011;30542;47.928;2.138;2022-11-02T06:08:38;5.47;;;0.60;;
44824;SDS011;30542;47.928;2.138;2022-11-02T06:13:39;2.55;;;0.30;;
44824;SDS011;30542;47.928;2.138;2022-11-02T06:18:40;3.05;;;0.35;;
44824;SDS011;30542;47.928;2.138;2022-11-02T06:23:40;2.67;;;0.50;;
44824;SDS011;30542;47.928;2.138;2022-11-02T06:28:42;3.10;;;0.50;;
44824;SDS011;30542;47.928;2.138;2022-11-02T06:33:43;1.13;;;0.27;;
44824;SDS011;30542;47.928;2.138;2022-11-02T06:38:44;8.82;;;1.15;;
44824;SDS011;30542;47.928;2.138;2022-11-02T06:43:45;5.50;;;0.70;;
44824;SDS011;30542;47.928;2.138;2022-11-02T06:48:45;9.77;;;2.03;;
44824;SDS011;30542;47.928;2.138;2022-11-02T06:53:46;7.05;;;1.33;;
44824;SDS011;30542;47.928;2.138;2022-11-02T06:58:47;5.47;;;1.30;;
44824;SDS011;30542;47.928;2.138;2022-11-02T07:03:47;7.43;;;1.20;;
44824;SDS011;30542;47.928;2.138;2022-11-02T07:08:47;4.37;;;1.00;;
44824;SDS011;30542;47.928;2.138;2022-11-02T07:13:48;7.20;;;1.10;;
44824;SDS011;30542;47.928;2.138;2022-11-02T07:18:48;5.23;;;1.17;;
44824;SDS011;30542;47.928;2.138;2022-11-02T07:23:49;5.77;;;1.60;;
44824;SDS011;30542;47.928;2.138;2022-11-02T07:28:49;6.75;;;1.60;;
44824;SDS011;30542;47.928;2.138;2022-11-02T07:33:50;8.60;;;1.37;;
44824;SDS011;30542;47.928;2.138;2022-11-02T07:38:50;4.00;;;1.00;;
44824;SDS011;30542;47.928;2.138;2022-11-02T07:43:50;6.03;;;1.00;;
44824;SDS011;30542;47.928;2.138;2022-11-02T07:48:51;6.30;;;1.40;;
44824;SDS011;30542;47.928;2.138;2022-11-02T07:53:51;6.68;;;1.63;;
44824;SDS011;30542;47.928;2.138;2022-11-02T07:58:52;6.50;;;1.73;;
44824;SDS011;30542;47.928;2.138;2022-11-02T08:03:52;23.17;;;4.70;;
44824;SDS011;30542;47.928;2.138;2022-11-02T08:08:53;24.02;;;5.07;;
44824;SDS011;30542;47.928;2.138;2022-11-02T08:13:54;13.13;;;2.70;;
44824;SDS011;30542;47.928;2.138;2022-11-02T08:18:54;13.23;;;2.90;;
44824;SDS011;30542;47.928;2.138;2022-11-02T08:23:57;9.55;;;1.92;;
44824;SDS011;30542;47.928;2.138;2022-11-02T08:28:58;8.20;;;2.30;;
44824;SDS011;30542;47.928;2.138;2022-11-02T08:33:58;8.80;;;1.40;;
44824;SDS011;30542;47.928;2.138;2022-11-02T08:38:58;8.90;;;1.70;;
44824;SDS011;30542;47.928;2.138;2022-11-02T08:43:59;10.73;;;1.73;;
44824;SDS011;30542;47.928;2.138;2022-11-02T08:48:59;7.77;;;1.17;;
44824;SDS011;30542;47.928;2.138;2022-11-02T08:53:59;8.40;;;1.63;;
44824;SDS011;30542;47.928;2.138;2022-11-02T08:59:00;9.37;;;1.97;;
44824;SDS011;30542;47.928;2.138;2022-11-02T09:04:00;8.50;;;1.60;;
44824;SDS011;30542;47.928;2.138;2022-11-02T09:09:00;7.97;;;1.93;;
44824;SDS011;30542;47.928;2.138;2022-11-02T09:14:01;5.00;;;1.60;;
44824;SDS011;30542;47.928;2.138;2022-11-02T09:19:02;7.28;;;1.70;;
44824;SDS011;30542;47.928;2.138;2022-11-02T09:24:02;8.33;;;1.50;;
44824;SDS011;30542;47.928;2.138;2022-11-02T09:29:02;8.05;;;1.70;;
44824;SDS011;30542;47.928;2.138;2022-11-02T09:34:03;9.07;;;1.60;;
44824;SDS011;30542;47.928;2.138;2022-11-02T09:39:03;7.73;;;1.73;;
44824;SDS011;30542;47.928;2.138;2022-11-02T09:59:31;7.15;;;1.40;;
44824;SDS011;30542;47.928;2.138;2022-11-02T10:09:40;7.88;;;1.92;;
44824;SDS011;30542;47.928;2.138;2022-11-02T10:20:04;7.07;;;1.52;;
44824;SDS011;30542;47.928;2.138;2022-11-02T10:25:26;7.00;;;1.55;;
44824;SDS011;30542;47.928;2.138;2022-11-02T10:30:27;4.77;;;1.20;;
44824;SDS011;30542;47.928;2.138;2022-11-02T10:45:58;4.72;;;1.30;;
44824;SDS011;30542;47.928;2.138;2022-11-02T10:51:29;4.03;;;1.33;;
44824;SDS011;30542;47.928;2.138;2022-11-02T10:56:31;6.82;;;1.38;;
44824;SDS011;30542;47.928;2.138;2022-11-02T11:01:32;6.57;;;1.20;;
44824;SDS011;30542;47.928;2.138;2022-11-02T11:06:36;3.93;;;1.00;;
44824;SDS011;30542;47.928;2.138;2022-11-02T11:11:39;3.92;;;1.30;;
44824;SDS011;30542;47.928;2.138;2022-11-02T11:21:48;5.20;;;1.08;;
44824;SDS011;30542;47.928;2.138;2022-11-02T11:27:13;5.38;;;1.33;;
44824;SDS011;30542;47.928;2.138;2022-11-02T11:32:25;4.05;;;0.77;;
44824;SDS011;30542;47.928;2.138;2022-11-02T11:37:27;5.10;;;1.20;;
44824;SDS011;30542;47.928;2.138;2022-11-02T11:42:30;5.43;;;1.00;;
44824;SDS011;30542;47.928;2.138;2022-11-02T11:47:34;5.55;;;1.30;;
44824;SDS011;30542;47.928;2.138;2022-11-02T11:52:38;4.00;;;1.10;;
44824;SDS011;30542;47.928;2.138;2022-11-02T11:57:38;5.88;;;1.30;;
44824;SDS011;30542;47.928;2.138;2022-11-02T12:02:39;6.63;;;1.17;;
44824;SDS011;30542;47.928;2.138;2022-11-02T12:07:45;3.70;;;0.80;;
44824;SDS011;30542;47.928;2.138;2022-11-02T12:13:15;6.72;;;1.40;;
44824;SDS011;30542;47.928;2.138;2022-11-02T12:23:52;5.40;;;1.00;;
44824;SDS011;30542;47.928;2.138;2022-11-02T12:29:03;4.20;;;0.95;;
44824;SDS011;30542;47.928;2.138;2022-11-02T12:55:43;4.03;;;1.02;;
44824;SDS011;30542;47.928;2.138;2022-11-02T13:00:48;4.30;;;1.23;;
44824;SDS011;30542;47.928;2.138;2022-11-02T13:05:55;7.55;;;0.93;;
44824;SDS011;30542;47.928;2.138;2022-11-02T13:11:07;5.18;;;1.45;;
44824;SDS011;30542;47.928;2.138;2022-11-02T13:21:16;4.00;;;1.00;;
44824;SDS011;30542;47.928;2.138;2022-11-02T13:26:26;7.30;;;1.23;;
44824;SDS011;30542;47.928;2.138;2022-11-02T13:31:50;5.22;;;1.00;;
44824;SDS011;30542;47.928;2.138;2022-11-02T13:36:53;6.80;;;1.15;;
44824;SDS011;30542;47.928;2.138;2022-11-02T13:42:37;4.15;;;1.30;;
44824;SDS011;30542;47.928;2.138;2022-11-02T13:53:03;3.13;;;0.85;;
44824;SDS011;30542;47.928;2.138;2022-11-02T13:58:12;6.50;;;1.27;;
44824;SDS011;30542;47.928;2.138;2022-11-02T14:03:21;5.03;;;0.85;;
44824;SDS011;30542;47.928;2.138;2022-11-02T14:08:33;6.32;;;0.90;;
44824;SDS011;30542;47.928;2.138;2022-11-02T14:39:49;4.82;;;0.90;;
44824;SDS011;30542;47.928;2.138;2022-11-02T14:45:01;5.50;;;1.38;;
44824;SDS011;30542;47.928;2.138;2022-11-02T14:50:24;5.20;;;1.20;;
44824;SDS011;30542;47.928;2.138;2022-11-02T14:55:28;3.30;;;1.00;;
44824;SDS011;30542;47.928;2.138;2022-11-02T15:00:36;3.67;;;1.10;;
44824;SDS011;30542;47.928;2.138;2022-11-02T15:16:48;4.20;;;1.42;;
44824;SDS011;30542;47.928;2.138;2022-11-02T15:21:48;4.83;;;1.13;;
44824;SDS011;30542;47.928;2.138;2022-11-02T15:26:50;5.47;;;1.33;;
44824;SDS011;30542;47.928;2.138;2022-11-02T15:31:55;4.95;;;1.00;;
44824;SDS011;30542;47.928;2.138;2022-11-02T15:36:58;5.32;;;1.20;;
44824;SDS011;30542;47.928;2.138;2022-11-02T15:42:13;2.03;;;0.80;;
44824;SDS011;30542;47.928;2.138;2022-11-02T15:47:27;3.97;;;1.13;;
44824;SDS011;30542;47.928;2.138;2022-11-02T16:03:07;3.22;;;1.00;;
44824;SDS011;30542;47.928;2.138;2022-11-02T16:13:22;2.15;;;0.80;;
44824;SDS011;30542;47.928;2.138;2022-11-02T16:18:31;3.08;;;0.68;;
44824;SDS011;30542;47.928;2.138;2022-11-02T16:23:39;3.53;;;1.10;;
44824;SDS011;30542;47.928;2.138;2022-11-02T16:28:42;5.85;;;0.93;;
44824;SDS011;30542;47.928;2.138;2022-11-02T16:38:55;3.05;;;0.90;;
44824;SDS011;30542;47.928;2.138;2022-11-02T16:44:00;7.75;;;1.17;;
44824;SDS011;30542;47.928;2.138;2022-11-02T16:49:23;5.47;;;0.95;;
44824;SDS011;30542;47.928;2.138;2022-11-02T16:54:26;7.85;;;1.83;;
44824;SDS011;30542;47.928;2.138;2022-11-02T16:59:33;5.28;;;1.40;;
44824;SDS011;30542;47.928;2.138;2022-11-02T17:04:34;5.53;;;1.15;;
44824;SDS011;30542;47.928;2.138;2022-11-02T17:09:40;4.57;;;0.90;;
44824;SDS011;30542;47.928;2.138;2022-11-02T17:14:45;5.18;;;1.05;;
44824;SDS011;30542;47.928;2.138;2022-11-02T17:25:12;5.70;;;1.30;;
44824;SDS011;30542;47.928;2.138;2022-11-02T17:35:34;3.90;;;1.10;;
44824;SDS011;30542;47.928;2.138;2022-11-02T17:40:36;6.38;;;0.90;;
44824;SDS011;30542;47.928;2.138;2022-11-02T17:45:36;3.72;;;0.70;;
44824;SDS011;30542;47.928;2.138;2022-11-02T17:50:38;6.47;;;1.35;;
44824;SDS011;30542;47.928;2.138;2022-11-02T17:55:41;6.30;;;1.02;;
44824;SDS011;30542;47.928;2.138;2022-11-02T18:00:41;7.30;;;1.20;;
44824;SDS011;30542;47.928;2.138;2022-11-02T18:05:42;6.72;;;1.10;;
44824;SDS011;30542;47.928;2.138;2022-11-02T18:10:43;3.87;;;0.87;;
44824;SDS011;30542;47.928;2.138;2022-11-02T18:15:45;5.30;;;1.00;;
44824;SDS011;30542;47.928;2.138;2022-11-02T18:20:46;4.75;;;0.80;;
44824;SDS011;30542;47.928;2.138;2022-11-02T18:25:46;4.43;;;1.03;;
44824;SDS011;30542;47.928;2.138;2022-11-02T18:30:47;6.17;;;1.30;;
44824;SDS011;30542;47.928;2.138;2022-11-02T18:35:47;6.07;;;1.00;;
44824;SDS011;30542;47.928;2.138;2022-11-02T18:40:47;6.13;;;1.63;;
44824;SDS011;30542;47.928;2.138;2022-11-02T18:45:48;6.07;;;1.70;;
44824;SDS011;30542;47.928;2.138;2022-11-02T18:50:48;9.63;;;2.33;;
44824;SDS011;30542;47.928;2.138;2022-11-02T18:55:48;8.60;;;1.80;;
44824;SDS011;30542;47.928;2.138;2022-11-02T19:00:49;8.40;;;2.00;;
44824;SDS011;30542;47.928;2.138;2022-11-02T19:05:54;7.77;;;2.17;;
44824;SDS011;30542;47.928;2.138;2022-11-02T19:11:16;4.55;;;1.33;;
44824;SDS011;30542;47.928;2.138;2022-11-02T19:16:16;8.37;;;2.20;;
44824;SDS011;30542;47.928;2.138;2022-11-02T19:21:16;7.10;;;2.43;;
44824;SDS011;30542;47.928;2.138;2022-11-02T19:26:17;4.63;;;1.80;;
44824;SDS011;30542;47.928;2.138;2022-11-02T19:31:17;7.00;;;1.93;;
44824;SDS011;30542;47.928;2.138;2022-11-02T19:36:18;6.40;;;2.10;;
44824;SDS011;30542;47.928;2.138;2022-11-02T19:41:18;5.53;;;1.97;;
44824;SDS011;30542;47.928;2.138;2022-11-02T19:46:20;6.45;;;1.58;;
44824;SDS011;30542;47.928;2.138;2022-11-02T19:51:22;5.13;;;1.55;;
44824;SDS011;30542;47.928;2.138;2022-11-02T19:56:25;5.88;;;1.80;;
44824;SDS011;30542;47.928;2.138;2022-11-02T20:01:27;5.43;;;1.48;;
44824;SDS011;30542;47.928;2.138;2022-11-02T20:06:40;7.22;;;1.63;;
44824;SDS011;30542;47.928;2.138;2022-11-02T20:11:43;5.78;;;1.40;;
44824;SDS011;30542;47.928;2.138;2022-11-02T20:16:44;3.88;;;1.63;;
44824;SDS011;30542;47.928;2.138;2022-11-02T20:21:44;7.28;;;2.17;;
44824;SDS011;30542;47.928;2.138;2022-11-02T20:26:45;5.80;;;1.80;;
44824;SDS011;30542;47.928;2.138;2022-11-02T20:31:45;4.70;;;1.33;;
44824;SDS011;30542;47.928;2.138;2022-11-02T20:36:47;4.82;;;1.60;;
44824;SDS011;30542;47.928;2.138;2022-11-02T20:41:49;6.50;;;1.80;;
44824;SDS011;30542;47.928;2.138;2022-11-02T20:46:54;5.55;;;1.60;;
44824;SDS011;30542;47.928;2.138;2022-11-02T20:51:55;4.57;;;1.33;;
44824;SDS011;30542;47.928;2.138;2022-11-02T20:56:57;4.70;;;1.25;;
44824;SDS011;30542;47.928;2.138;2022-11-02T21:01:57;7.22;;;1.48;;
44824;SDS011;30542;47.928;2.138;2022-11-02T21:07:01;5.57;;;1.70;;
44824;SDS011;30542;47.928;2.138;2022-11-02T21:12:01;5.38;;;1.42;;
44824;SDS011;30542;47.928;2.138;2022-11-02T21:17:20;4.53;;;1.30;;
44824;SDS011;30542;47.928;2.138;2022-11-02T21:22:20;4.77;;;1.60;;
44824;SDS011;30542;47.928;2.138;2022-11-02T21:27:21;5.50;;;1.67;;
44824;SDS011;30542;47.928;2.138;2022-11-02T21:32:22;6.30;;;1.45;;
44824;SDS011;30542;47.928;2.138;2022-11-02T21:37:22;5.88;;;1.75;;
44824;SDS011;30542;47.928;2.138;2022-11-02T21:42:23;4.85;;;1.45;;
44824;SDS011;30542;47.928;2.138;2022-11-02T21:47:23;4.30;;;1.75;;
44824;SDS011;30542;47.928;2.138;2022-11-02T21:52:24;4.57;;;1.30;;
44824;SDS011;30542;47.928;2.138;2022-11-02T21:57:25;3.60;;;1.33;;
44824;SDS011;30542;47.928;2.138;2022-11-02T22:02:25;7.33;;;1.67;;
44824;SDS011;30542;47.928;2.138;2022-11-02T22:07:25;3.73;;;1.40;;
44824;SDS011;30542;47.928;2.138;2022-11-02T22:12:26;4.00;;;1.40;;
44824;SDS011;30542;47.928;2.138;2022-11-02T22:17:45;3.80;;;1.30;;
44824;SDS011;30542;47.928;2.138;2022-11-02T22:22:45;4.47;;;1.37;;
44824;SDS011;30542;47.928;2.138;2022-11-02T22:27:45;3.87;;;1.13;;
44824;SDS011;30542;47.928;2.138;2022-11-02T22:32:46;2.77;;;1.00;;
44824;SDS011;30542;47.928;2.138;2022-11-02T22:37:46;3.77;;;1.27;;
44824;SDS011;30542;47.928;2.138;2022-11-02T22:43:09;4.32;;;1.40;;
44824;SDS011;30542;47.928;2.138;2022-11-02T22:48:10;3.73;;;1.03;;
44824;SDS011;30542;47.928;2.138;2022-11-02T22:53:10;3.97;;;1.10;;
44824;SDS011;30542;47.928;2.138;2022-11-02T22:58:10;2.97;;;1.00;;
44824;SDS011;30542;47.928;2.138;2022-11-02T23:03:11;2.63;;;0.87;;
44824;SDS011;30542;47.928;2.138;2022-11-02T23:08:11;5.67;;;1.63;;
44824;SDS011;30542;47.928;2.138;2022-11-02T23:13:12;3.38;;;1.13;;
44824;SDS011;30542;47.928;2.138;2022-11-02T23:18:12;3.57;;;1.17;;
44824;SDS011;30542;47.928;2.138;2022-11-02T23:23:13;3.70;;;0.93;;
44824;SDS011;30542;47.928;2.138;2022-11-02T23:28:31;2.25;;;0.85;;
44824;SDS011;30542;47.928;2.138;2022-11-02T23:33:50;2.10;;;0.90;;
44824;SDS011;30542;47.928;2.138;2022-11-02T23:38:51;2.40;;;1.03;;
44824;SDS011;30542;47.928;2.138;2022-11-02T23:44:09;2.38;;;0.90;;
44824;SDS011;30542;47.928;2.138;2022-11-02T23:49:12;2.35;;;0.98;;
44824;SDS011;30542;47.928;2.138;2022-11-02T23:54:15;2.28;;;0.70;;
44824;SDS011;30542;47.928;2.138;2022-11-02T23:59:34;2.10;;;0.70;;
